sensor_id;sensor_type;location;lat;lon;timestamp;P1;durP1;ratioP1;P2;durP2;ratioP2
67762;SDS011;54566;52.022;5.582;2022-10-22T00:02:08;9.32;;;4.88;;
67762;SDS011;54566;52.022;5.582;2022-10-22T00:04:34;11.98;;;4.50;;
67762;SDS011;54566;52.022;5.582;2022-10-22T00:07:00;9.45;;;4.22;;
67762;SDS011;54566;52.022;5.582;2022-10-22T00:09:26;10.88;;;5.03;;
67762;SDS011;54566;52.022;5.582;2022-10-22T00:11:52;11.25;;;4.32;;
67762;SDS011;54566;52.022;5.582;2022-10-22T00:14:18;8.27;;;4.50;;
67762;SDS011;54566;52.022;5.582;2022-10-22T00:16:44;8.38;;;4.57;;
67762;SDS011;54566;52.022;5.582;2022-10-22T00:19:10;10.68;;;4.82;;
67762;SDS011;54566;52.022;5.582;2022-10-22T00:21:37;10.35;;;4.72;;
67762;SDS011;54566;52.022;5.582;2022-10-22T00:24:03;23.08;;;5.18;;
67762;SDS011;54566;52.022;5.582;2022-10-22T00:26:29;10.73;;;4.40;;
67762;SDS011;54566;52.022;5.582;2022-10-22T00:28:58;5.60;;;4.53;;
67762;SDS011;54566;52.022;5.582;2022-10-22T00:31:24;10.05;;;4.43;;
67762;SDS011;54566;52.022;5.582;2022-10-22T00:33:50;8.18;;;4.35;;
67762;SDS011;54566;52.022;5.582;2022-10-22T00:36:16;11.82;;;4.38;;
67762;SDS011;54566;52.022;5.582;2022-10-22T00:38:42;8.80;;;4.43;;
67762;SDS011;54566;52.022;5.582;2022-10-22T00:41:08;12.88;;;4.40;;
67762;SDS011;54566;52.022;5.582;2022-10-22T00:43:51;8.43;;;4.22;;
67762;SDS011;54566;52.022;5.582;2022-10-22T00:46:17;8.02;;;4.40;;
67762;SDS011;54566;52.022;5.582;2022-10-22T00:48:43;10.60;;;4.47;;
67762;SDS011;54566;52.022;5.582;2022-10-22T00:51:10;9.82;;;4.45;;
67762;SDS011;54566;52.022;5.582;2022-10-22T00:53:37;7.13;;;4.65;;
67762;SDS011;54566;52.022;5.582;2022-10-22T00:56:04;7.20;;;4.70;;
67762;SDS011;54566;52.022;5.582;2022-10-22T00:58:32;8.75;;;4.47;;
67762;SDS011;54566;52.022;5.582;2022-10-22T01:00:59;12.23;;;4.97;;
67762;SDS011;54566;52.022;5.582;2022-10-22T01:03:25;14.50;;;5.35;;
67762;SDS011;54566;52.022;5.582;2022-10-22T01:05:55;9.35;;;4.50;;
67762;SDS011;54566;52.022;5.582;2022-10-22T01:08:40;9.52;;;4.70;;
67762;SDS011;54566;52.022;5.582;2022-10-22T01:11:51;10.52;;;4.88;;
67762;SDS011;54566;52.022;5.582;2022-10-22T01:16:46;6.53;;;4.13;;
67762;SDS011;54566;52.022;5.582;2022-10-22T01:21:50;9.27;;;4.70;;
67762;SDS011;54566;52.022;5.582;2022-10-22T01:24:34;15.82;;;4.85;;
67762;SDS011;54566;52.022;5.582;2022-10-22T01:27:11;13.90;;;5.07;;
67762;SDS011;54566;52.022;5.582;2022-10-22T01:29:41;8.65;;;4.30;;
67762;SDS011;54566;52.022;5.582;2022-10-22T01:32:13;8.25;;;4.28;;
67762;SDS011;54566;52.022;5.582;2022-10-22T01:34:41;16.17;;;4.70;;
67762;SDS011;54566;52.022;5.582;2022-10-22T01:37:07;9.65;;;5.10;;
67762;SDS011;54566;52.022;5.582;2022-10-22T01:39:35;14.65;;;4.75;;
67762;SDS011;54566;52.022;5.582;2022-10-22T01:42:03;8.27;;;4.45;;
67762;SDS011;54566;52.022;5.582;2022-10-22T01:44:30;10.27;;;4.68;;
67762;SDS011;54566;52.022;5.582;2022-10-22T01:47:01;11.32;;;5.22;;
67762;SDS011;54566;52.022;5.582;2022-10-22T01:49:41;9.38;;;4.63;;
67762;SDS011;54566;52.022;5.582;2022-10-22T01:52:14;9.25;;;5.03;;
67762;SDS011;54566;52.022;5.582;2022-10-22T01:57:35;11.90;;;4.93;;
67762;SDS011;54566;52.022;5.582;2022-10-22T02:00:12;8.10;;;4.53;;
67762;SDS011;54566;52.022;5.582;2022-10-22T02:07:42;23.05;;;5.90;;
67762;SDS011;54566;52.022;5.582;2022-10-22T02:10:09;8.55;;;5.28;;
67762;SDS011;54566;52.022;5.582;2022-10-22T02:12:35;15.88;;;5.20;;
67762;SDS011;54566;52.022;5.582;2022-10-22T02:15:03;12.20;;;5.40;;
67762;SDS011;54566;52.022;5.582;2022-10-22T02:17:30;11.55;;;5.72;;
67762;SDS011;54566;52.022;5.582;2022-10-22T02:20:05;10.73;;;5.22;;
67762;SDS011;54566;52.022;5.582;2022-10-22T02:22:31;17.50;;;5.50;;
67762;SDS011;54566;52.022;5.582;2022-10-22T02:25:00;19.42;;;5.93;;
67762;SDS011;54566;52.022;5.582;2022-10-22T02:32:30;12.90;;;6.20;;
67762;SDS011;54566;52.022;5.582;2022-10-22T02:34:57;11.48;;;6.85;;
67762;SDS011;54566;52.022;5.582;2022-10-22T02:37:24;23.45;;;6.68;;
67762;SDS011;54566;52.022;5.582;2022-10-22T02:39:50;9.18;;;5.93;;
67762;SDS011;54566;52.022;5.582;2022-10-22T02:42:17;15.63;;;6.97;;
67762;SDS011;54566;52.022;5.582;2022-10-22T02:44:43;12.43;;;6.47;;
67762;SDS011;54566;52.022;5.582;2022-10-22T02:47:09;18.63;;;7.18;;
67762;SDS011;54566;52.022;5.582;2022-10-22T02:49:35;16.15;;;7.40;;
67762;SDS011;54566;52.022;5.582;2022-10-22T02:52:01;12.55;;;7.07;;
67762;SDS011;54566;52.022;5.582;2022-10-22T02:54:27;14.13;;;7.63;;
67762;SDS011;54566;52.022;5.582;2022-10-22T02:56:53;14.88;;;6.72;;
67762;SDS011;54566;52.022;5.582;2022-10-22T02:59:20;17.25;;;7.60;;
67762;SDS011;54566;52.022;5.582;2022-10-22T03:01:47;14.07;;;7.18;;
67762;SDS011;54566;52.022;5.582;2022-10-22T03:04:13;13.32;;;6.38;;
67762;SDS011;54566;52.022;5.582;2022-10-22T03:06:39;13.90;;;7.45;;
67762;SDS011;54566;52.022;5.582;2022-10-22T03:09:08;15.45;;;7.80;;
67762;SDS011;54566;52.022;5.582;2022-10-22T03:11:34;17.00;;;7.28;;
67762;SDS011;54566;52.022;5.582;2022-10-22T03:14:00;14.55;;;6.95;;
67762;SDS011;54566;52.022;5.582;2022-10-22T03:16:26;18.35;;;7.28;;
67762;SDS011;54566;52.022;5.582;2022-10-22T03:18:52;17.55;;;7.53;;
67762;SDS011;54566;52.022;5.582;2022-10-22T03:21:20;18.92;;;7.57;;
67762;SDS011;54566;52.022;5.582;2022-10-22T03:23:47;18.42;;;7.72;;
67762;SDS011;54566;52.022;5.582;2022-10-22T03:26:13;14.10;;;7.50;;
67762;SDS011;54566;52.022;5.582;2022-10-22T03:28:39;15.60;;;6.78;;
67762;SDS011;54566;52.022;5.582;2022-10-22T03:31:06;10.43;;;6.72;;
67762;SDS011;54566;52.022;5.582;2022-10-22T03:33:32;14.93;;;6.97;;
67762;SDS011;54566;52.022;5.582;2022-10-22T03:35:58;14.52;;;6.45;;
67762;SDS011;54566;52.022;5.582;2022-10-22T03:38:25;27.13;;;7.25;;
67762;SDS011;54566;52.022;5.582;2022-10-22T03:40:51;18.17;;;7.30;;
67762;SDS011;54566;52.022;5.582;2022-10-22T03:43:17;16.63;;;7.05;;
67762;SDS011;54566;52.022;5.582;2022-10-22T03:45:44;17.02;;;6.70;;
67762;SDS011;54566;52.022;5.582;2022-10-22T03:48:10;13.07;;;6.82;;
67762;SDS011;54566;52.022;5.582;2022-10-22T03:50:36;17.40;;;7.53;;
67762;SDS011;54566;52.022;5.582;2022-10-22T03:53:02;19.50;;;6.90;;
67762;SDS011;54566;52.022;5.582;2022-10-22T03:55:28;14.10;;;6.82;;
67762;SDS011;54566;52.022;5.582;2022-10-22T03:57:54;23.33;;;6.90;;
67762;SDS011;54566;52.022;5.582;2022-10-22T04:00:20;18.55;;;6.80;;
67762;SDS011;54566;52.022;5.582;2022-10-22T04:02:46;14.93;;;6.20;;
67762;SDS011;54566;52.022;5.582;2022-10-22T04:05:12;16.10;;;6.72;;
67762;SDS011;54566;52.022;5.582;2022-10-22T04:07:38;15.60;;;7.05;;
67762;SDS011;54566;52.022;5.582;2022-10-22T04:10:07;16.17;;;6.75;;
67762;SDS011;54566;52.022;5.582;2022-10-22T04:12:33;16.35;;;6.18;;
67762;SDS011;54566;52.022;5.582;2022-10-22T04:14:59;17.73;;;6.18;;
67762;SDS011;54566;52.022;5.582;2022-10-22T04:17:26;17.88;;;6.85;;
67762;SDS011;54566;52.022;5.582;2022-10-22T04:19:52;18.30;;;6.70;;
67762;SDS011;54566;52.022;5.582;2022-10-22T04:22:18;21.75;;;7.57;;
67762;SDS011;54566;52.022;5.582;2022-10-22T04:24:44;23.58;;;7.18;;
67762;SDS011;54566;52.022;5.582;2022-10-22T04:27:10;27.80;;;7.18;;
67762;SDS011;54566;52.022;5.582;2022-10-22T04:29:36;20.13;;;7.20;;
67762;SDS011;54566;52.022;5.582;2022-10-22T04:32:02;15.70;;;6.70;;
67762;SDS011;54566;52.022;5.582;2022-10-22T04:34:28;22.35;;;6.88;;
67762;SDS011;54566;52.022;5.582;2022-10-22T04:36:55;18.20;;;6.50;;
67762;SDS011;54566;52.022;5.582;2022-10-22T04:39:21;18.33;;;6.90;;
67762;SDS011;54566;52.022;5.582;2022-10-22T04:41:48;17.20;;;6.70;;
67762;SDS011;54566;52.022;5.582;2022-10-22T04:44:14;20.38;;;6.60;;
67762;SDS011;54566;52.022;5.582;2022-10-22T04:46:40;14.23;;;6.25;;
67762;SDS011;54566;52.022;5.582;2022-10-22T04:49:06;16.50;;;6.60;;
67762;SDS011;54566;52.022;5.582;2022-10-22T04:51:32;22.67;;;6.60;;
67762;SDS011;54566;52.022;5.582;2022-10-22T04:53:58;23.15;;;6.53;;
67762;SDS011;54566;52.022;5.582;2022-10-22T04:56:27;23.30;;;7.05;;
67762;SDS011;54566;52.022;5.582;2022-10-22T04:58:54;22.10;;;6.30;;
67762;SDS011;54566;52.022;5.582;2022-10-22T05:01:22;19.10;;;6.47;;
67762;SDS011;54566;52.022;5.582;2022-10-22T05:03:49;15.00;;;6.18;;
67762;SDS011;54566;52.022;5.582;2022-10-22T05:06:15;15.55;;;5.78;;
67762;SDS011;54566;52.022;5.582;2022-10-22T05:08:41;15.35;;;5.80;;
67762;SDS011;54566;52.022;5.582;2022-10-22T05:11:12;17.00;;;6.00;;
67762;SDS011;54566;52.022;5.582;2022-10-22T05:13:38;23.55;;;5.72;;
67762;SDS011;54566;52.022;5.582;2022-10-22T05:16:04;22.10;;;5.95;;
67762;SDS011;54566;52.022;5.582;2022-10-22T05:18:32;16.52;;;5.72;;
67762;SDS011;54566;52.022;5.582;2022-10-22T05:20:59;19.70;;;6.20;;
67762;SDS011;54566;52.022;5.582;2022-10-22T05:23:25;16.58;;;6.13;;
67762;SDS011;54566;52.022;5.582;2022-10-22T05:25:52;18.08;;;5.32;;
67762;SDS011;54566;52.022;5.582;2022-10-22T05:28:18;16.58;;;6.40;;
67762;SDS011;54566;52.022;5.582;2022-10-22T05:30:56;17.10;;;5.13;;
67762;SDS011;54566;52.022;5.582;2022-10-22T05:33:23;18.90;;;5.85;;
67762;SDS011;54566;52.022;5.582;2022-10-22T05:35:49;20.35;;;5.68;;
67762;SDS011;54566;52.022;5.582;2022-10-22T05:38:15;15.45;;;5.35;;
67762;SDS011;54566;52.022;5.582;2022-10-22T05:40:42;18.73;;;5.63;;
67762;SDS011;54566;52.022;5.582;2022-10-22T05:43:08;16.95;;;5.40;;
67762;SDS011;54566;52.022;5.582;2022-10-22T05:45:38;16.08;;;5.20;;
67762;SDS011;54566;52.022;5.582;2022-10-22T05:48:04;14.35;;;5.43;;
67762;SDS011;54566;52.022;5.582;2022-10-22T05:50:31;17.63;;;5.47;;
67762;SDS011;54566;52.022;5.582;2022-10-22T05:52:59;21.95;;;5.38;;
67762;SDS011;54566;52.022;5.582;2022-10-22T05:55:25;14.50;;;5.50;;
67762;SDS011;54566;52.022;5.582;2022-10-22T05:57:52;13.25;;;5.40;;
67762;SDS011;54566;52.022;5.582;2022-10-22T06:00:20;21.13;;;5.82;;
67762;SDS011;54566;52.022;5.582;2022-10-22T06:02:49;15.93;;;5.15;;
67762;SDS011;54566;52.022;5.582;2022-10-22T06:05:15;16.80;;;5.70;;
67762;SDS011;54566;52.022;5.582;2022-10-22T06:07:41;17.77;;;5.55;;
67762;SDS011;54566;52.022;5.582;2022-10-22T06:10:09;18.27;;;5.43;;
67762;SDS011;54566;52.022;5.582;2022-10-22T06:12:39;17.38;;;5.60;;
67762;SDS011;54566;52.022;5.582;2022-10-22T06:15:05;15.35;;;5.43;;
67762;SDS011;54566;52.022;5.582;2022-10-22T06:17:31;14.73;;;5.50;;
67762;SDS011;54566;52.022;5.582;2022-10-22T06:19:57;16.92;;;5.82;;
67762;SDS011;54566;52.022;5.582;2022-10-22T06:22:23;19.73;;;5.60;;
67762;SDS011;54566;52.022;5.582;2022-10-22T06:24:49;19.13;;;5.43;;
67762;SDS011;54566;52.022;5.582;2022-10-22T06:27:16;19.88;;;5.75;;
67762;SDS011;54566;52.022;5.582;2022-10-22T06:29:42;14.25;;;5.22;;
67762;SDS011;54566;52.022;5.582;2022-10-22T06:38:04;18.40;;;4.93;;
67762;SDS011;54566;52.022;5.582;2022-10-22T06:40:30;18.38;;;5.05;;
67762;SDS011;54566;52.022;5.582;2022-10-22T06:42:58;17.52;;;4.90;;
67762;SDS011;54566;52.022;5.582;2022-10-22T06:45:25;19.58;;;4.57;;
67762;SDS011;54566;52.022;5.582;2022-10-22T06:47:51;15.85;;;5.30;;
67762;SDS011;54566;52.022;5.582;2022-10-22T06:50:17;16.20;;;4.38;;
67762;SDS011;54566;52.022;5.582;2022-10-22T06:52:44;18.63;;;4.78;;
67762;SDS011;54566;52.022;5.582;2022-10-22T06:55:10;25.23;;;4.97;;
67762;SDS011;54566;52.022;5.582;2022-10-22T06:57:37;23.05;;;4.72;;
67762;SDS011;54566;52.022;5.582;2022-10-22T07:00:05;17.13;;;4.45;;
67762;SDS011;54566;52.022;5.582;2022-10-22T07:02:31;26.58;;;4.78;;
67762;SDS011;54566;52.022;5.582;2022-10-22T07:04:57;13.70;;;4.93;;
67762;SDS011;54566;52.022;5.582;2022-10-22T07:07:23;18.70;;;4.45;;
67762;SDS011;54566;52.022;5.582;2022-10-22T07:09:51;18.88;;;4.38;;
67762;SDS011;54566;52.022;5.582;2022-10-22T07:15:02;18.05;;;4.07;;
67762;SDS011;54566;52.022;5.582;2022-10-22T07:17:28;17.48;;;4.55;;
67762;SDS011;54566;52.022;5.582;2022-10-22T07:20:03;21.13;;;4.85;;
67762;SDS011;54566;52.022;5.582;2022-10-22T07:25:36;12.57;;;3.90;;
67762;SDS011;54566;52.022;5.582;2022-10-22T07:31:03;15.98;;;3.75;;
67762;SDS011;54566;52.022;5.582;2022-10-22T07:33:37;14.77;;;3.78;;
67762;SDS011;54566;52.022;5.582;2022-10-22T07:36:04;31.23;;;4.25;;
67762;SDS011;54566;52.022;5.582;2022-10-22T07:41:28;14.45;;;3.50;;
67762;SDS011;54566;52.022;5.582;2022-10-22T07:44:25;12.43;;;3.28;;
67762;SDS011;54566;52.022;5.582;2022-10-22T07:47:00;17.52;;;3.50;;
67762;SDS011;54566;52.022;5.582;2022-10-22T07:49:36;14.90;;;3.03;;
67762;SDS011;54566;52.022;5.582;2022-10-22T07:52:07;14.65;;;3.10;;
67762;SDS011;54566;52.022;5.582;2022-10-22T07:54:36;13.82;;;3.17;;
67762;SDS011;54566;52.022;5.582;2022-10-22T07:57:02;14.05;;;3.00;;
67762;SDS011;54566;52.022;5.582;2022-10-22T07:59:29;20.58;;;3.83;;
67762;SDS011;54566;52.022;5.582;2022-10-22T08:01:56;12.43;;;3.63;;
67762;SDS011;54566;52.022;5.582;2022-10-22T08:04:24;16.70;;;3.30;;
67762;SDS011;54566;52.022;5.582;2022-10-22T08:06:50;19.92;;;3.63;;
67762;SDS011;54566;52.022;5.582;2022-10-22T08:09:17;13.70;;;3.15;;
67762;SDS011;54566;52.022;5.582;2022-10-22T08:11:43;9.88;;;2.55;;
67762;SDS011;54566;52.022;5.582;2022-10-22T08:14:11;15.68;;;2.95;;
67762;SDS011;54566;52.022;5.582;2022-10-22T08:16:37;11.38;;;2.67;;
67762;SDS011;54566;52.022;5.582;2022-10-22T08:19:03;12.60;;;2.40;;
67762;SDS011;54566;52.022;5.582;2022-10-22T08:21:30;17.58;;;3.10;;
67762;SDS011;54566;52.022;5.582;2022-10-22T08:23:56;15.25;;;2.83;;
67762;SDS011;54566;52.022;5.582;2022-10-22T08:26:22;17.17;;;3.25;;
67762;SDS011;54566;52.022;5.582;2022-10-22T08:28:48;15.43;;;2.88;;
67762;SDS011;54566;52.022;5.582;2022-10-22T08:31:14;15.40;;;2.72;;
67762;SDS011;54566;52.022;5.582;2022-10-22T08:33:54;15.43;;;2.67;;
67762;SDS011;54566;52.022;5.582;2022-10-22T08:36:22;17.65;;;2.75;;
67762;SDS011;54566;52.022;5.582;2022-10-22T08:38:48;12.85;;;2.58;;
67762;SDS011;54566;52.022;5.582;2022-10-22T08:41:15;15.13;;;3.65;;
67762;SDS011;54566;52.022;5.582;2022-10-22T08:46:34;13.68;;;3.20;;
67762;SDS011;54566;52.022;5.582;2022-10-22T08:49:04;18.35;;;3.10;;
67762;SDS011;54566;52.022;5.582;2022-10-22T09:00:28;14.05;;;2.92;;
67762;SDS011;54566;52.022;5.582;2022-10-22T09:02:58;16.88;;;3.17;;
67762;SDS011;54566;52.022;5.582;2022-10-22T09:08:11;17.10;;;2.70;;
67762;SDS011;54566;52.022;5.582;2022-10-22T09:10:39;10.02;;;2.75;;
67762;SDS011;54566;52.022;5.582;2022-10-22T09:13:19;17.80;;;2.83;;
67762;SDS011;54566;52.022;5.582;2022-10-22T09:15:54;14.55;;;3.47;;
67762;SDS011;54566;52.022;5.582;2022-10-22T09:18:29;16.83;;;2.88;;
67762;SDS011;54566;52.022;5.582;2022-10-22T09:21:00;16.35;;;2.80;;
67762;SDS011;54566;52.022;5.582;2022-10-22T09:23:46;11.90;;;2.92;;
67762;SDS011;54566;52.022;5.582;2022-10-22T09:26:14;17.50;;;3.03;;
67762;SDS011;54566;52.022;5.582;2022-10-22T09:28:41;14.90;;;2.55;;
67762;SDS011;54566;52.022;5.582;2022-10-22T09:40:04;12.05;;;2.60;;
67762;SDS011;54566;52.022;5.582;2022-10-22T09:42:42;14.85;;;2.50;;
67762;SDS011;54566;52.022;5.582;2022-10-22T09:48:38;14.18;;;2.95;;
67762;SDS011;54566;52.022;5.582;2022-10-22T09:51:11;10.57;;;2.35;;
67762;SDS011;54566;52.022;5.582;2022-10-22T09:56:19;12.95;;;2.33;;
67762;SDS011;54566;52.022;5.582;2022-10-22T09:58:46;15.65;;;2.50;;
67762;SDS011;54566;52.022;5.582;2022-10-22T10:01:30;20.58;;;3.17;;
67762;SDS011;54566;52.022;5.582;2022-10-22T10:04:01;23.40;;;3.92;;
67762;SDS011;54566;52.022;5.582;2022-10-22T10:06:29;14.52;;;3.00;;
67762;SDS011;54566;52.022;5.582;2022-10-22T10:08:56;21.65;;;3.33;;
67762;SDS011;54566;52.022;5.582;2022-10-22T10:11:27;12.75;;;2.70;;
67762;SDS011;54566;52.022;5.582;2022-10-22T10:16:38;16.35;;;2.50;;
67762;SDS011;54566;52.022;5.582;2022-10-22T10:19:29;15.30;;;3.05;;
67762;SDS011;54566;52.022;5.582;2022-10-22T10:22:01;19.23;;;3.05;;
67762;SDS011;54566;52.022;5.582;2022-10-22T10:40:27;12.10;;;2.95;;
67762;SDS011;54566;52.022;5.582;2022-10-22T10:42:59;17.65;;;2.63;;
67762;SDS011;54566;52.022;5.582;2022-10-22T10:56:15;15.75;;;2.38;;
67762;SDS011;54566;52.022;5.582;2022-10-22T10:58:58;14.88;;;3.35;;
67762;SDS011;54566;52.022;5.582;2022-10-22T11:07:00;13.65;;;2.55;;
67762;SDS011;54566;52.022;5.582;2022-10-22T11:12:35;11.85;;;2.20;;
67762;SDS011;54566;52.022;5.582;2022-10-22T11:15:13;15.27;;;2.72;;
67762;SDS011;54566;52.022;5.582;2022-10-22T11:17:44;14.68;;;2.83;;
67762;SDS011;54566;52.022;5.582;2022-10-22T11:20:19;11.00;;;2.15;;
67762;SDS011;54566;52.022;5.582;2022-10-22T11:25:40;11.07;;;2.35;;
67762;SDS011;54566;52.022;5.582;2022-10-22T11:28:12;15.20;;;2.60;;
67762;SDS011;54566;52.022;5.582;2022-10-22T11:30:41;14.15;;;2.38;;
67762;SDS011;54566;52.022;5.582;2022-10-22T11:33:25;17.90;;;2.13;;
67762;SDS011;54566;52.022;5.582;2022-10-22T11:36:11;23.25;;;3.08;;
67762;SDS011;54566;52.022;5.582;2022-10-22T11:38:44;11.63;;;2.20;;
67762;SDS011;54566;52.022;5.582;2022-10-22T11:41:12;14.00;;;2.35;;
67762;SDS011;54566;52.022;5.582;2022-10-22T11:49:01;16.97;;;2.10;;
67762;SDS011;54566;52.022;5.582;2022-10-22T11:57:28;16.85;;;3.10;;
67762;SDS011;54566;52.022;5.582;2022-10-22T12:00:00;18.58;;;2.55;;
67762;SDS011;54566;52.022;5.582;2022-10-22T12:05:35;22.48;;;2.85;;
67762;SDS011;54566;52.022;5.582;2022-10-22T12:08:19;15.82;;;2.83;;
67762;SDS011;54566;52.022;5.582;2022-10-22T12:13:27;16.73;;;2.55;;
67762;SDS011;54566;52.022;5.582;2022-10-22T12:24:35;18.13;;;2.92;;
67762;SDS011;54566;52.022;5.582;2022-10-22T12:27:39;14.88;;;2.70;;
67762;SDS011;54566;52.022;5.582;2022-10-22T12:29:57;15.57;;;2.50;;
67762;SDS011;54566;52.022;5.582;2022-10-22T12:32:37;23.45;;;2.70;;
67762;SDS011;54566;52.022;5.582;2022-10-22T12:35:06;16.17;;;2.40;;
67762;SDS011;54566;52.022;5.582;2022-10-22T12:37:33;14.63;;;3.38;;
67762;SDS011;54566;52.022;5.582;2022-10-22T12:42:58;16.13;;;2.20;;
67762;SDS011;54566;52.022;5.582;2022-10-22T12:48:03;15.38;;;2.92;;
67762;SDS011;54566;52.022;5.582;2022-10-22T12:50:31;20.48;;;3.55;;
67762;SDS011;54566;52.022;5.582;2022-10-22T12:53:04;17.50;;;2.75;;
67762;SDS011;54566;52.022;5.582;2022-10-22T12:55:55;13.60;;;2.70;;
67762;SDS011;54566;52.022;5.582;2022-10-22T13:01:38;21.42;;;2.83;;
67762;SDS011;54566;52.022;5.582;2022-10-22T13:16:36;17.42;;;2.80;;
67762;SDS011;54566;52.022;5.582;2022-10-22T13:35:08;15.23;;;3.13;;
67762;SDS011;54566;52.022;5.582;2022-10-22T15:26:21;20.45;;;3.53;;
67762;SDS011;54566;52.022;5.582;2022-10-22T15:28:47;14.88;;;2.88;;
67762;SDS011;54566;52.022;5.582;2022-10-22T15:31:16;16.67;;;2.97;;
67762;SDS011;54566;52.022;5.582;2022-10-22T15:34:02;17.13;;;2.78;;
67762;SDS011;54566;52.022;5.582;2022-10-22T15:36:28;17.48;;;2.47;;
67762;SDS011;54566;52.022;5.582;2022-10-22T15:39:06;17.50;;;2.67;;
67762;SDS011;54566;52.022;5.582;2022-10-22T15:41:32;25.58;;;3.22;;
67762;SDS011;54566;52.022;5.582;2022-10-22T15:44:00;17.85;;;2.95;;
67762;SDS011;54566;52.022;5.582;2022-10-22T15:46:26;22.30;;;3.63;;
67762;SDS011;54566;52.022;5.582;2022-10-22T15:48:54;28.80;;;5.55;;
67762;SDS011;54566;52.022;5.582;2022-10-22T15:51:31;21.35;;;4.72;;
67762;SDS011;54566;52.022;5.582;2022-10-22T15:53:59;32.65;;;2.90;;
67762;SDS011;54566;52.022;5.582;2022-10-22T15:56:28;22.52;;;3.13;;
67762;SDS011;54566;52.022;5.582;2022-10-22T15:58:58;17.15;;;3.38;;
67762;SDS011;54566;52.022;5.582;2022-10-22T16:01:26;20.48;;;3.15;;
67762;SDS011;54566;52.022;5.582;2022-10-22T16:10:06;51.40;;;8.27;;
67762;SDS011;54566;52.022;5.582;2022-10-22T16:12:34;20.27;;;3.75;;
67762;SDS011;54566;52.022;5.582;2022-10-22T16:15:00;22.40;;;3.00;;
67762;SDS011;54566;52.022;5.582;2022-10-22T16:17:34;16.77;;;2.55;;
67762;SDS011;54566;52.022;5.582;2022-10-22T16:20:02;20.10;;;3.17;;
67762;SDS011;54566;52.022;5.582;2022-10-22T16:22:29;20.25;;;2.90;;
67762;SDS011;54566;52.022;5.582;2022-10-22T16:24:55;18.85;;;2.65;;
67762;SDS011;54566;52.022;5.582;2022-10-22T16:27:21;19.27;;;2.72;;
67762;SDS011;54566;52.022;5.582;2022-10-22T16:29:47;19.27;;;3.03;;
67762;SDS011;54566;52.022;5.582;2022-10-22T16:32:13;16.60;;;2.80;;
67762;SDS011;54566;52.022;5.582;2022-10-22T16:34:49;18.42;;;3.35;;
67762;SDS011;54566;52.022;5.582;2022-10-22T19:08:25;15.18;;;6.15;;
67762;SDS011;54566;52.022;5.582;2022-10-22T19:10:51;24.40;;;6.47;;
67762;SDS011;54566;52.022;5.582;2022-10-22T19:13:18;21.15;;;7.32;;
67762;SDS011;54566;52.022;5.582;2022-10-22T19:15:48;28.00;;;7.15;;
67762;SDS011;54566;52.022;5.582;2022-10-22T19:18:17;21.77;;;6.40;;
67762;SDS011;54566;52.022;5.582;2022-10-22T19:20:45;19.38;;;6.13;;
67762;SDS011;54566;52.022;5.582;2022-10-22T19:23:12;21.15;;;6.40;;
67762;SDS011;54566;52.022;5.582;2022-10-22T19:28:25;24.20;;;8.27;;
67762;SDS011;54566;52.022;5.582;2022-10-22T19:30:54;25.65;;;7.93;;
67762;SDS011;54566;52.022;5.582;2022-10-22T19:33:26;21.75;;;7.85;;
67762;SDS011;54566;52.022;5.582;2022-10-22T19:35:52;13.85;;;7.25;;
67762;SDS011;54566;52.022;5.582;2022-10-22T19:38:18;25.70;;;7.68;;
67762;SDS011;54566;52.022;5.582;2022-10-22T19:40:44;21.33;;;7.38;;
67762;SDS011;54566;52.022;5.582;2022-10-22T19:49:00;21.10;;;6.90;;
67762;SDS011;54566;52.022;5.582;2022-10-22T19:51:28;23.90;;;8.13;;
67762;SDS011;54566;52.022;5.582;2022-10-22T19:53:58;22.23;;;7.28;;
67762;SDS011;54566;52.022;5.582;2022-10-22T19:56:32;19.08;;;7.63;;
67762;SDS011;54566;52.022;5.582;2022-10-22T21:06:36;21.63;;;8.98;;
67762;SDS011;54566;52.022;5.582;2022-10-22T21:09:04;20.77;;;10.10;;
67762;SDS011;54566;52.022;5.582;2022-10-22T21:11:38;22.42;;;10.05;;
67762;SDS011;54566;52.022;5.582;2022-10-22T21:14:05;22.33;;;10.18;;
67762;SDS011;54566;52.022;5.582;2022-10-22T21:16:32;19.13;;;9.15;;
67762;SDS011;54566;52.022;5.582;2022-10-22T21:18:58;19.02;;;10.25;;
67762;SDS011;54566;52.022;5.582;2022-10-22T21:21:24;19.38;;;10.50;;
67762;SDS011;54566;52.022;5.582;2022-10-22T21:23:51;18.23;;;10.23;;
67762;SDS011;54566;52.022;5.582;2022-10-22T21:26:19;23.80;;;10.77;;
67762;SDS011;54566;52.022;5.582;2022-10-22T21:28:45;22.05;;;10.52;;
67762;SDS011;54566;52.022;5.582;2022-10-22T21:31:11;22.23;;;11.25;;
67762;SDS011;54566;52.022;5.582;2022-10-22T21:33:45;27.25;;;12.27;;
67762;SDS011;54566;52.022;5.582;2022-10-22T21:36:11;22.45;;;9.80;;
67762;SDS011;54566;52.022;5.582;2022-10-22T21:41:22;27.52;;;9.07;;
67762;SDS011;54566;52.022;5.582;2022-10-22T21:43:48;20.58;;;9.35;;
67762;SDS011;54566;52.022;5.582;2022-10-22T21:49:03;25.02;;;9.90;;
67762;SDS011;54566;52.022;5.582;2022-10-22T21:51:30;16.23;;;9.02;;
67762;SDS011;54566;52.022;5.582;2022-10-22T21:53:57;21.08;;;8.35;;
67762;SDS011;54566;52.022;5.582;2022-10-22T21:56:24;20.83;;;8.85;;
67762;SDS011;54566;52.022;5.582;2022-10-22T21:58:51;20.57;;;8.97;;
67762;SDS011;54566;52.022;5.582;2022-10-22T22:01:17;22.60;;;9.57;;
67762;SDS011;54566;52.022;5.582;2022-10-22T22:03:47;20.23;;;8.93;;
67762;SDS011;54566;52.022;5.582;2022-10-22T22:06:14;19.35;;;9.80;;
67762;SDS011;54566;52.022;5.582;2022-10-22T22:08:40;20.73;;;9.35;;
67762;SDS011;54566;52.022;5.582;2022-10-22T22:11:15;21.65;;;10.13;;
67762;SDS011;54566;52.022;5.582;2022-10-22T22:13:42;21.27;;;9.05;;
67762;SDS011;54566;52.022;5.582;2022-10-22T22:16:09;19.05;;;8.57;;
67762;SDS011;54566;52.022;5.582;2022-10-22T22:18:35;21.52;;;9.13;;
67762;SDS011;54566;52.022;5.582;2022-10-22T22:21:15;17.85;;;8.65;;
67762;SDS011;54566;52.022;5.582;2022-10-22T22:23:42;19.05;;;8.35;;
67762;SDS011;54566;52.022;5.582;2022-10-22T22:26:09;24.33;;;8.30;;
67762;SDS011;54566;52.022;5.582;2022-10-22T22:28:53;18.90;;;8.45;;
67762;SDS011;54566;52.022;5.582;2022-10-22T22:31:29;20.20;;;8.27;;
67762;SDS011;54566;52.022;5.582;2022-10-22T22:34:13;21.23;;;8.60;;
67762;SDS011;54566;52.022;5.582;2022-10-22T22:36:40;20.92;;;8.75;;
67762;SDS011;54566;52.022;5.582;2022-10-22T22:39:10;23.92;;;10.07;;
67762;SDS011;54566;52.022;5.582;2022-10-22T22:41:37;23.30;;;8.93;;
67762;SDS011;54566;52.022;5.582;2022-10-22T22:44:03;20.40;;;9.27;;
67762;SDS011;54566;52.022;5.582;2022-10-22T22:49:18;19.17;;;9.05;;
67762;SDS011;54566;52.022;5.582;2022-10-22T22:51:51;15.93;;;8.60;;
67762;SDS011;54566;52.022;5.582;2022-10-22T22:54:17;20.85;;;9.02;;
67762;SDS011;54566;52.022;5.582;2022-10-22T22:59:23;20.20;;;8.65;;
67762;SDS011;54566;52.022;5.582;2022-10-22T23:01:49;15.57;;;8.52;;
67762;SDS011;54566;52.022;5.582;2022-10-22T23:04:16;17.98;;;8.73;;
67762;SDS011;54566;52.022;5.582;2022-10-22T23:06:43;20.35;;;9.07;;
67762;SDS011;54566;52.022;5.582;2022-10-22T23:09:19;20.85;;;9.32;;
67762;SDS011;54566;52.022;5.582;2022-10-22T23:11:45;15.80;;;9.05;;
67762;SDS011;54566;52.022;5.582;2022-10-22T23:14:12;21.08;;;9.73;;
67762;SDS011;54566;52.022;5.582;2022-10-22T23:16:40;23.25;;;9.27;;
67762;SDS011;54566;52.022;5.582;2022-10-22T23:19:09;20.88;;;9.80;;
67762;SDS011;54566;52.022;5.582;2022-10-22T23:21:43;20.85;;;9.18;;
67762;SDS011;54566;52.022;5.582;2022-10-22T23:24:10;17.35;;;8.93;;
67762;SDS011;54566;52.022;5.582;2022-10-22T23:26:38;30.08;;;9.52;;
67762;SDS011;54566;52.022;5.582;2022-10-22T23:29:10;24.80;;;10.07;;